CheckWX is a tool to help pilots better visualize weather data.  It is not intended as a substitute for an official pre-flight weather briefing.

15:14:55 UTC

KTOC METAR
Toccoa Rg Letourneau Field Airport
Toccoa, Georgia, USA
Current

20 mins ago

KTOC 261455Z AUTO 28006KT 10SM CLR 32/16 A3018 RMK AO2 T03240155
Observed
May-26 @ 14:55 UTC
Wind
  • 280° at 6 KTS
Visibility
10 SM
Flight Rules
VFR
Cloud Levels
  • Clear skies
Temperature
32°C / 90°F
Dewpoint
16°C / 61°F
Humidity
38%
Altimeter
30.18" Hg
Pressure
1022.02 hPa
Previous

40 mins ago

KTOC 261435Z AUTO 31005KT 10SM CLR 32/17 A3019 RMK AO2 T03200166
Observed
May-26 @ 14:35 UTC
Wind
  • 310° at 5 KTS
Visibility
10 SM
Flight Rules
VFR
Cloud Levels
  • Clear skies
Temperature
32°C / 90°F
Dewpoint
17°C / 63°F
Heat Index
33°C / 91°F
Humidity
41%
Altimeter
30.19" Hg
Pressure
1022.32 hPa
Previous

60 mins ago

KTOC 261415Z AUTO 31004KT 10SM CLR 31/17 A3019 RMK AO2 T03120173
Observed
May-26 @ 14:15 UTC
Wind
  • 310° at 4 KTS
Visibility
10 SM
Flight Rules
VFR
Cloud Levels
  • Clear skies
Temperature
31°C / 88°F
Dewpoint
17°C / 63°F
Heat Index
32°C / 89°F
Humidity
43%
Altimeter
30.19" Hg
Pressure
1022.32 hPa